createdAt,value
2019-01-05T00:00:39.183Z,1014.48
2019-01-05T00:01:39.198Z,1014.46
2019-01-05T00:02:39.213Z,1014.48
2019-01-05T00:03:39.229Z,1014.45
2019-01-05T00:04:39.243Z,1014.45
2019-01-05T00:05:39.258Z,1014.53
2019-01-05T00:06:39.274Z,1014.6
2019-01-05T00:07:39.288Z,1014.53
2019-01-05T00:08:39.305Z,1014.54
2019-01-05T00:09:39.319Z,1014.5
2019-01-05T00:10:39.335Z,1014.5
2019-01-05T00:11:39.349Z,1014.49
2019-01-05T00:12:39.364Z,1014.43
2019-01-05T00:13:39.380Z,1014.42
2019-01-05T00:15:39.409Z,1014.31
2019-01-05T00:16:39.424Z,1014.3
2019-01-05T00:17:39.440Z,1014.33
2019-01-05T00:18:39.454Z,1014.33
2019-01-05T00:19:39.472Z,1014.31
2019-01-05T00:20:39.486Z,1014.28
2019-01-05T00:21:39.500Z,1014.2
2019-01-05T00:22:39.515Z,1014.14
2019-01-05T00:23:39.532Z,1014.18
2019-01-05T00:24:39.546Z,1014.14
2019-01-05T00:25:39.561Z,1014.16
2019-01-05T00:26:39.676Z,1014.15
2019-01-05T00:27:39.591Z,1014.24
2019-01-05T00:28:39.606Z,1014.15
2019-01-05T00:29:39.621Z,1014.15
2019-01-05T00:31:39.751Z,1014.14
2019-01-05T00:32:39.667Z,1014.19
2019-01-05T00:33:39.681Z,1014.16
2019-01-05T00:34:39.697Z,1014.2
2019-01-05T00:35:39.712Z,1014.2
2019-01-05T00:36:39.726Z,1014.13
2019-01-05T00:37:39.742Z,1014.14
2019-01-05T00:38:39.757Z,1014.16
2019-01-05T00:39:39.773Z,1014.19
2019-01-05T00:40:39.787Z,1014.18
2019-01-05T00:41:39.802Z,1014.18
2019-01-05T00:42:39.818Z,1014.21
2019-01-05T00:43:39.833Z,1014.2
2019-01-05T00:44:39.849Z,1014.17
2019-01-05T00:46:39.880Z,1014.18
2019-01-05T00:47:39.894Z,1014.15
2019-01-05T00:48:39.910Z,1014.06
2019-01-05T00:49:39.928Z,1014.04
2019-01-05T00:50:39.940Z,1014.02
2019-01-05T00:51:39.957Z,1013.98
2019-01-05T00:52:39.970Z,1013.94
2019-01-05T00:53:39.985Z,1013.91
2019-01-05T00:54:40.002Z,1013.85
2019-01-05T00:55:40.017Z,1013.81
2019-01-05T00:56:40.031Z,1013.89
2019-01-05T00:57:40.047Z,1013.8
2019-01-05T00:58:40.061Z,1013.77
2019-01-05T00:59:40.076Z,1013.65
2019-01-05T01:00:40.092Z,1013.66
2019-01-05T01:01:40.108Z,1013.7
2019-01-05T01:02:40.122Z,1013.59
2019-01-05T01:03:40.138Z,1013.61
2019-01-05T01:04:40.153Z,1013.55
2019-01-05T01:05:40.168Z,1013.58
2019-01-05T01:06:40.183Z,1013.56
2019-01-05T01:07:40.199Z,1013.54
2019-01-05T01:08:40.214Z,1013.54
2019-01-05T01:09:40.228Z,1013.5
2019-01-05T01:10:40.244Z,1013.42
2019-01-05T01:11:40.260Z,1013.47
2019-01-05T01:12:40.288Z,1013.45
2019-01-05T01:13:40.290Z,1013.39
2019-01-05T01:14:40.306Z,1013.43
2019-01-05T01:15:40.324Z,1013.38
2019-01-05T01:16:40.336Z,1013.38
2019-01-05T01:18:40.367Z,1013.3
2019-01-05T01:19:40.382Z,1013.28
2019-01-05T01:20:40.399Z,1013.31
2019-01-05T01:21:40.413Z,1013.29
2019-01-05T01:22:40.428Z,1013.21
2019-01-05T01:23:40.443Z,1013.2
2019-01-05T01:24:40.458Z,1013.24
2019-01-05T01:25:40.474Z,1013.22
2019-01-05T01:26:40.489Z,1013.21
2019-01-05T01:27:40.504Z,1013.19
2019-01-05T01:28:40.519Z,1013.23
2019-01-05T01:29:40.534Z,1013.2
2019-01-05T01:30:40.551Z,1013.19
2019-01-05T01:31:40.567Z,1013.15
2019-01-05T01:32:40.580Z,1013.14
2019-01-05T01:34:40.612Z,1013.15
2019-01-05T01:35:40.627Z,1013.2
2019-01-05T01:36:40.642Z,1013.09
2019-01-05T01:37:40.658Z,1013.15
2019-01-05T01:38:40.673Z,1013.06
2019-01-05T01:39:40.688Z,1013.11
2019-01-05T01:40:40.703Z,1013.02
2019-01-05T01:41:40.719Z,1013.07
2019-01-05T01:42:40.733Z,1013.09
2019-01-05T01:43:40.749Z,1013.05
2019-01-05T01:44:40.765Z,1013.08
2019-01-05T01:45:40.781Z,1013.02
2019-01-05T01:46:40.794Z,1012.99
2019-01-05T01:47:40.810Z,1013.04
2019-01-05T01:48:40.826Z,1012.98
2019-01-05T01:50:40.857Z,1012.92
2019-01-05T01:51:40.873Z,1013
2019-01-05T01:52:40.887Z,1013
2019-01-05T01:53:40.902Z,1012.94
2019-01-05T01:54:40.918Z,1012.93
2019-01-05T01:55:40.933Z,1012.91
2019-01-05T01:56:40.949Z,1012.9
2019-01-05T01:57:40.963Z,1012.92
2019-01-05T01:58:40.979Z,1012.9
2019-01-05T01:59:40.995Z,1012.91
2019-01-05T02:00:41.010Z,1012.9
2019-01-05T02:01:41.025Z,1012.88
2019-01-05T02:02:41.041Z,1012.84
2019-01-05T02:03:41.056Z,1012.77
2019-01-05T02:04:41.071Z,1012.77
2019-01-05T02:06:41.103Z,1012.76
2019-01-05T02:07:41.119Z,1012.64
2019-01-05T02:08:41.134Z,1012.68
2019-01-05T02:09:41.148Z,1012.67
2019-01-05T02:10:41.164Z,1012.59
2019-01-05T02:11:41.179Z,1012.69
2019-01-05T02:12:41.194Z,1012.63
2019-01-05T02:13:41.211Z,1012.63
2019-01-05T02:14:41.229Z,1012.56
2019-01-05T02:15:41.241Z,1012.6
2019-01-05T02:16:41.256Z,1012.47
2019-01-05T02:17:41.276Z,1012.43
2019-01-05T02:18:41.288Z,1012.43
2019-01-05T02:19:41.305Z,1012.41
2019-01-05T02:21:41.334Z,1012.41
2019-01-05T02:22:41.352Z,1012.36
2019-01-05T02:23:41.368Z,1012.37
2019-01-05T02:24:41.381Z,1012.35
2019-01-05T02:25:41.397Z,1012.3
2019-01-05T02:26:41.411Z,1012.3
2019-01-05T02:27:41.427Z,1012.26
2019-01-05T02:28:41.442Z,1012.22
2019-01-05T02:29:41.457Z,1012.18
2019-01-05T02:30:41.474Z,1012.2
2019-01-05T02:31:41.491Z,1012.17
2019-01-05T02:32:41.504Z,1012.14
2019-01-05T02:33:41.519Z,1012.12
2019-01-05T02:34:41.535Z,1012.1
2019-01-05T02:35:41.551Z,1012.13
2019-01-05T02:36:41.571Z,1012.09
2019-01-05T02:37:41.582Z,1012.1
2019-01-05T02:38:41.598Z,1012.07
2019-01-05T02:39:41.617Z,1012.02
2019-01-05T02:40:41.628Z,1012.03
2019-01-05T02:41:41.642Z,1012.06
2019-01-05T02:42:41.662Z,1012.03
2019-01-05T02:43:41.676Z,1011.97
2019-01-05T02:44:41.690Z,1011.99
2019-01-05T02:45:41.704Z,1011.94
2019-01-05T02:46:41.720Z,1011.94
2019-01-05T02:47:41.736Z,1011.89
2019-01-05T02:48:41.750Z,1011.95
2019-01-05T02:49:41.767Z,1011.92
2019-01-05T02:50:41.784Z,1011.92
2019-01-05T02:51:41.799Z,1011.89
2019-01-05T02:53:41.829Z,1011.86
2019-01-05T02:54:41.844Z,1011.83
2019-01-05T02:55:41.860Z,1011.82
2019-01-05T02:56:41.874Z,1011.84
2019-01-05T02:57:41.898Z,1011.88
2019-01-05T02:58:41.906Z,1011.78
2019-01-05T02:59:41.921Z,1011.71
2019-01-05T03:00:41.937Z,1011.71
2019-01-05T03:01:41.951Z,1011.66
2019-01-05T03:02:41.967Z,1011.61
2019-01-05T03:03:41.983Z,1011.64
2019-01-05T03:04:41.999Z,1011.61
2019-01-05T03:05:42.014Z,1011.59
2019-01-05T03:06:42.029Z,1011.59
2019-01-05T03:07:42.044Z,1011.57
2019-01-05T03:09:42.081Z,1011.6
2019-01-05T03:10:42.092Z,1011.62
2019-01-05T03:11:42.107Z,1011.6
2019-01-05T03:12:42.122Z,1011.66
2019-01-05T03:13:42.142Z,1011.6
2019-01-05T03:14:42.153Z,1011.62
2019-01-05T03:15:42.169Z,1011.61
2019-01-05T03:16:42.184Z,1011.64
2019-01-05T03:17:42.200Z,1011.6
2019-01-05T03:18:42.215Z,1011.59
2019-01-05T03:19:42.231Z,1011.58
2019-01-05T03:20:42.246Z,1011.55
2019-01-05T03:21:42.261Z,1011.59
2019-01-05T03:22:42.294Z,1011.63
2019-01-05T03:23:42.293Z,1011.59
2019-01-05T03:25:42.324Z,1011.52
2019-01-05T03:26:42.340Z,1011.6
2019-01-05T03:27:42.357Z,1011.52
2019-01-05T03:28:42.371Z,1011.5
2019-01-05T03:29:42.386Z,1011.43
2019-01-05T03:30:42.404Z,1011.45
2019-01-05T03:31:42.419Z,1011.46
2019-01-05T03:32:42.433Z,1011.45
2019-01-05T03:33:42.448Z,1011.43
2019-01-05T03:34:42.464Z,1011.44
2019-01-05T03:35:42.479Z,1011.42
2019-01-05T03:36:42.496Z,1011.41
2019-01-05T03:37:42.511Z,1011.36
2019-01-05T03:38:42.528Z,1011.39
2019-01-05T03:39:42.543Z,1011.39
2019-01-05T03:41:42.574Z,1011.36
2019-01-05T03:42:42.589Z,1011.34
2019-01-05T03:43:42.605Z,1011.4
2019-01-05T03:44:42.621Z,1011.42
2019-01-05T03:45:42.636Z,1011.34
2019-01-05T03:46:42.651Z,1011.38
2019-01-05T03:47:42.670Z,1011.31
2019-01-05T03:48:42.682Z,1011.33
2019-01-05T03:49:42.698Z,1011.37
2019-01-05T03:50:42.713Z,1011.37
2019-01-05T03:51:42.733Z,1011.41
2019-01-05T03:52:42.762Z,1011.31
2019-01-05T03:53:42.760Z,1011.29
2019-01-05T03:54:42.777Z,1011.24
2019-01-05T03:56:42.809Z,1011.34
2019-01-05T03:57:42.823Z,1011.32
2019-01-05T03:58:42.839Z,1011.32
2019-01-05T03:59:42.854Z,1011.29
2019-01-05T04:00:42.870Z,1011.26
2019-01-05T04:01:42.886Z,1011.29
2019-01-05T04:02:42.901Z,1011.3
2019-01-05T04:03:42.917Z,1011.32
2019-01-05T04:04:42.935Z,1011.24
2019-01-05T04:05:42.948Z,1011.28
2019-01-05T04:06:42.964Z,1011.23
2019-01-05T04:07:42.982Z,1011.32
2019-01-05T04:08:42.995Z,1011.2
2019-01-05T04:09:43.010Z,1011.27
2019-01-05T04:10:43.028Z,1011.27
2019-01-05T04:11:43.042Z,1011.26
2019-01-05T04:12:43.057Z,1011.27
2019-01-05T04:13:43.073Z,1011.23
2019-01-05T04:14:43.091Z,1011.2
2019-01-05T04:15:43.103Z,1011.23
2019-01-05T04:16:43.120Z,1011.24
2019-01-05T04:17:43.135Z,1011.1
2019-01-05T04:18:43.151Z,1011.02
2019-01-05T04:19:43.166Z,1010.99
2019-01-05T04:20:43.182Z,1011.01
2019-01-05T04:21:43.198Z,1011.11
2019-01-05T04:22:43.214Z,1011.08
2019-01-05T04:23:43.238Z,1011.07
2019-01-05T04:24:43.286Z,1011.03
2019-01-05T04:25:43.260Z,1011.05
2019-01-05T04:26:43.275Z,1011.02
2019-01-05T04:28:43.308Z,1011.14
2019-01-05T04:29:43.323Z,1011.11
2019-01-05T04:30:43.340Z,1011.01
2019-01-05T04:31:43.357Z,1011.01
2019-01-05T04:32:43.379Z,1010.92
2019-01-05T04:33:43.386Z,1010.94
2019-01-05T04:34:43.400Z,1010.91
2019-01-05T04:35:43.416Z,1010.98
2019-01-05T04:36:43.432Z,1010.97
2019-01-05T04:37:43.452Z,1010.97
2019-01-05T04:38:43.463Z,1010.95
2019-01-05T04:39:43.479Z,1011
2019-01-05T04:40:43.495Z,1011
2019-01-05T04:41:43.510Z,1011.07
2019-01-05T04:42:43.526Z,1010.98
2019-01-05T04:44:43.558Z,1011
2019-01-05T04:45:43.573Z,1011.05
2019-01-05T04:46:43.588Z,1011.01
2019-01-05T04:47:43.604Z,1011.03
2019-01-05T04:48:43.619Z,1011.01
2019-01-05T04:49:43.637Z,1011.08
2019-01-05T04:50:43.651Z,1011.07
2019-01-05T04:51:43.667Z,1011.02
2019-01-05T04:52:43.682Z,1011.18
2019-01-05T04:53:43.698Z,1011.09
2019-01-05T04:54:43.714Z,1011.03
2019-01-05T04:55:43.733Z,1011
2019-01-05T04:56:43.745Z,1010.98
2019-01-05T04:57:43.762Z,1011.04
2019-01-05T04:58:43.777Z,1011.05
2019-01-05T05:00:43.857Z,1011.03
2019-01-05T05:01:43.824Z,1011.06
2019-01-05T05:02:43.840Z,1011.02
2019-01-05T05:03:43.856Z,1010.97
2019-01-05T05:04:43.871Z,1010.94
2019-01-05T05:05:43.887Z,1010.94
2019-01-05T05:06:43.904Z,1010.94
2019-01-05T05:07:43.965Z,1010.94
2019-01-05T05:08:43.934Z,1010.91
2019-01-05T05:09:43.950Z,1010.94
2019-01-05T05:10:43.964Z,1010.99
2019-01-05T05:11:43.981Z,1010.95
2019-01-05T05:12:43.996Z,1010.99
2019-01-05T05:13:44.014Z,1010.98
2019-01-05T05:14:44.028Z,1011
2019-01-05T05:16:44.060Z,1010.95
2019-01-05T05:17:44.076Z,1010.93
2019-01-05T05:18:44.091Z,1010.96
2019-01-05T05:19:44.107Z,1010.99
2019-01-05T05:20:44.123Z,1010.95
2019-01-05T05:21:44.138Z,1010.93
2019-01-05T05:22:44.154Z,1011
2019-01-05T05:23:44.170Z,1011.01
2019-01-05T05:24:44.186Z,1011.02
2019-01-05T05:25:44.201Z,1010.94
2019-01-05T05:26:44.217Z,1010.89
2019-01-05T05:27:44.234Z,1010.86
2019-01-05T05:28:44.249Z,1010.9
2019-01-05T05:29:44.265Z,1010.8
2019-01-05T05:31:44.301Z,1010.82
2019-01-05T05:32:44.313Z,1010.81
2019-01-05T05:33:44.329Z,1010.73
2019-01-05T05:34:44.345Z,1010.79
2019-01-05T05:35:44.361Z,1010.79
2019-01-05T05:36:44.376Z,1010.8
2019-01-05T05:37:44.392Z,1010.85
2019-01-05T05:38:44.409Z,1010.82
2019-01-05T05:39:44.423Z,1010.89
2019-01-05T05:40:44.439Z,1010.86
2019-01-05T05:41:44.456Z,1010.93
2019-01-05T05:42:44.471Z,1010.89
2019-01-05T05:43:44.486Z,1010.89
2019-01-05T05:44:44.502Z,1010.92
2019-01-05T05:45:44.519Z,1010.85
2019-01-05T05:46:44.535Z,1010.86
2019-01-05T05:47:44.550Z,1010.91
2019-01-05T05:48:44.566Z,1010.92
2019-01-05T05:49:44.583Z,1010.89
2019-01-05T05:50:44.597Z,1010.87
2019-01-05T05:51:44.614Z,1010.82
2019-01-05T05:52:44.630Z,1010.81
2019-01-05T05:53:44.646Z,1010.79
2019-01-05T05:54:44.661Z,1010.79
2019-01-05T05:55:44.677Z,1010.8
2019-01-05T05:56:44.695Z,1010.8
2019-01-05T05:57:44.709Z,1010.7
2019-01-05T05:58:44.724Z,1010.71
2019-01-05T05:59:44.741Z,1010.72
2019-01-05T06:00:44.756Z,1010.69
2019-01-05T06:01:44.772Z,1010.74
2019-01-05T06:03:44.804Z,1010.71
2019-01-05T06:04:44.820Z,1010.78
2019-01-05T06:05:44.836Z,1010.74
2019-01-05T06:06:44.852Z,1010.73
2019-01-05T06:07:44.868Z,1010.73
2019-01-05T06:08:44.885Z,1010.72
2019-01-05T06:09:44.899Z,1010.69
2019-01-05T06:10:44.916Z,1010.72
2019-01-05T06:11:44.931Z,1010.72
2019-01-05T06:12:44.947Z,1010.7
2019-01-05T06:13:44.963Z,1010.72
2019-01-05T06:14:44.980Z,1010.77
2019-01-05T06:15:44.996Z,1010.71
2019-01-05T06:16:45.010Z,1010.79
2019-01-05T06:17:45.027Z,1010.82
2019-01-05T06:19:45.060Z,1010.93
2019-01-05T06:20:45.075Z,1011
2019-01-05T06:21:45.091Z,1011.08
2019-01-05T06:22:45.108Z,1011.06
2019-01-05T06:23:45.123Z,1011.05
2019-01-05T06:24:45.139Z,1011.06
2019-01-05T06:25:45.158Z,1011.09
2019-01-05T06:26:45.171Z,1011.06
2019-01-05T06:27:45.214Z,1011.14
2019-01-05T06:28:45.204Z,1011.06
2019-01-05T06:29:45.219Z,1011.1
2019-01-05T06:30:45.235Z,1011.15
2019-01-05T06:31:45.250Z,1011.19
2019-01-05T06:32:45.266Z,1011.11
2019-01-05T06:33:45.283Z,1011.06
2019-01-05T06:35:45.317Z,1011.19
2019-01-05T06:36:45.338Z,1011.23
2019-01-05T06:37:45.347Z,1011.22
2019-01-05T06:38:45.362Z,1011.26
2019-01-05T06:39:45.378Z,1011.25
2019-01-05T06:40:45.394Z,1011.26
2019-01-05T06:41:45.411Z,1011.26
2019-01-05T06:42:45.426Z,1011.26
2019-01-05T06:43:45.442Z,1011.23
2019-01-05T06:44:45.458Z,1011.28
2019-01-05T06:45:45.474Z,1011.28
2019-01-05T06:46:45.490Z,1011.33
2019-01-05T06:47:45.507Z,1011.4
2019-01-05T06:48:45.525Z,1011.37
2019-01-05T06:49:45.538Z,1011.37
2019-01-05T06:51:45.571Z,1011.53
2019-01-05T06:52:45.587Z,1011.58
2019-01-05T06:53:45.603Z,1011.61
2019-01-05T06:54:45.620Z,1011.72
2019-01-05T06:55:45.639Z,1011.74
2019-01-05T06:56:45.650Z,1011.78
2019-01-05T06:57:45.666Z,1011.73
2019-01-05T06:58:45.682Z,1011.65
2019-01-05T06:59:45.699Z,1011.72
2019-01-05T07:00:45.714Z,1011.73
2019-01-05T07:01:45.730Z,1011.79
2019-01-05T07:02:45.747Z,1011.74
2019-01-05T07:03:45.763Z,1011.82
2019-01-05T07:04:45.780Z,1011.84
2019-01-05T07:06:45.812Z,1011.8
2019-01-05T07:07:45.827Z,1011.83
2019-01-05T07:08:45.844Z,1011.78
2019-01-05T07:09:45.861Z,1011.83
2019-01-05T07:10:45.876Z,1011.85
2019-01-05T07:11:45.893Z,1011.88
2019-01-05T07:12:45.908Z,1011.9
2019-01-05T07:13:45.924Z,1011.87
2019-01-05T07:14:45.940Z,1011.88
2019-01-05T07:15:45.956Z,1011.86
2019-01-05T07:16:45.975Z,1011.83
2019-01-05T07:17:45.989Z,1011.89
2019-01-05T07:18:46.004Z,1011.9
2019-01-05T07:19:46.020Z,1011.85
2019-01-05T07:20:46.037Z,1011.94
2019-01-05T07:21:46.053Z,1011.93
2019-01-05T07:22:46.068Z,1011.97
2019-01-05T07:23:46.085Z,1011.89
2019-01-05T07:24:46.102Z,1011.97
2019-01-05T07:25:46.116Z,1011.96
2019-01-05T07:26:46.132Z,1012.05
2019-01-05T07:27:46.149Z,1012.12
2019-01-05T07:28:46.165Z,1012.19
2019-01-05T07:29:46.182Z,1012.13
2019-01-05T07:30:46.197Z,1012.13
2019-01-05T07:31:46.215Z,1012.24
2019-01-05T07:32:46.230Z,1012.22
2019-01-05T07:33:46.245Z,1012.2
2019-01-05T07:34:46.262Z,1012.2
2019-01-05T07:35:46.278Z,1012.33
2019-01-05T07:36:46.295Z,1012.31
2019-01-05T07:38:46.326Z,1012.36
2019-01-05T07:39:46.342Z,1012.35
2019-01-05T07:40:46.358Z,1012.35
2019-01-05T07:41:46.374Z,1012.36
2019-01-05T07:42:46.390Z,1012.33
2019-01-05T07:43:46.407Z,1012.32
2019-01-05T07:44:46.423Z,1012.4
2019-01-05T07:45:46.438Z,1012.42
2019-01-05T07:46:46.455Z,1012.52
2019-01-05T07:47:46.470Z,1012.5
2019-01-05T07:48:46.489Z,1012.55
2019-01-05T07:49:46.503Z,1012.59
2019-01-05T07:50:46.519Z,1012.51
2019-01-05T07:51:46.536Z,1012.61
2019-01-05T07:52:46.551Z,1012.57
2019-01-05T07:54:46.584Z,1012.61
2019-01-05T07:55:46.599Z,1012.57
2019-01-05T07:56:46.616Z,1012.59
2019-01-05T07:57:46.633Z,1012.65
2019-01-05T07:58:46.648Z,1012.64
2019-01-05T07:59:46.664Z,1012.64
2019-01-05T08:00:46.680Z,1012.69
2019-01-05T08:01:46.697Z,1012.65
2019-01-05T08:02:46.713Z,1012.66
2019-01-05T08:03:46.729Z,1012.68
2019-01-05T08:04:46.745Z,1012.7
2019-01-05T08:05:46.763Z,1012.79
2019-01-05T08:06:46.777Z,1012.78
2019-01-05T08:07:46.793Z,1012.77
2019-01-05T08:08:46.809Z,1012.76
2019-01-05T08:10:46.841Z,1012.74
2019-01-05T08:11:46.859Z,1012.72
2019-01-05T08:12:46.874Z,1012.72
2019-01-05T08:13:46.889Z,1012.69
2019-01-05T08:14:46.907Z,1012.7
2019-01-05T08:15:46.923Z,1012.68
2019-01-05T08:16:46.938Z,1012.67
2019-01-05T08:17:46.955Z,1012.69
2019-01-05T08:18:46.972Z,1012.71
2019-01-05T08:19:46.989Z,1012.71
2019-01-05T08:20:47.003Z,1012.75
2019-01-05T08:21:47.020Z,1012.79
2019-01-05T08:22:47.036Z,1012.81
2019-01-05T08:23:47.053Z,1012.82
2019-01-05T08:24:47.068Z,1012.87
2019-01-05T08:26:47.103Z,1012.87
2019-01-05T08:27:47.118Z,1012.88
2019-01-05T08:28:47.134Z,1012.89
2019-01-05T08:29:47.150Z,1012.88
2019-01-05T08:30:47.167Z,1012.86
2019-01-05T08:31:47.182Z,1012.89
2019-01-05T08:32:47.199Z,1012.91
2019-01-05T08:33:47.219Z,1012.92
2019-01-05T08:34:47.232Z,1012.88
2019-01-05T08:35:47.248Z,1012.92
2019-01-05T08:36:47.265Z,1012.88
2019-01-05T08:37:47.281Z,1012.86
2019-01-05T08:38:47.298Z,1012.84
2019-01-05T08:39:47.315Z,1012.78
2019-01-05T08:41:47.349Z,1012.83
2019-01-05T08:42:47.364Z,1012.81
2019-01-05T08:43:47.381Z,1012.83
2019-01-05T08:44:47.399Z,1012.85
2019-01-05T08:45:47.416Z,1012.9
2019-01-05T08:46:47.431Z,1012.94
2019-01-05T08:47:47.448Z,1012.95
2019-01-05T08:48:47.466Z,1012.93
2019-01-05T08:49:47.480Z,1012.95
2019-01-05T08:50:47.497Z,1013
2019-01-05T08:51:47.514Z,1012.97
2019-01-05T08:52:47.531Z,1012.97
2019-01-05T08:53:47.547Z,1012.97
2019-01-05T08:54:47.564Z,1012.99
2019-01-05T08:55:47.581Z,1013.02
2019-01-05T08:56:47.598Z,1013.05
2019-01-05T08:57:47.614Z,1013.05
2019-01-05T08:58:47.631Z,1013.09
2019-01-05T08:59:47.648Z,1013.13
2019-01-05T09:00:47.664Z,1013.13
2019-01-05T09:01:47.680Z,1013.15
2019-01-05T09:02:47.698Z,1013.13
2019-01-05T09:03:47.715Z,1013.2
2019-01-05T09:04:47.731Z,1013.14
2019-01-05T09:05:47.751Z,1013.14
2019-01-05T09:06:47.764Z,1013.17
2019-01-05T09:07:47.782Z,1013.16
2019-01-05T09:08:47.798Z,1013.13
2019-01-05T09:09:47.815Z,1013.19
2019-01-05T09:10:47.831Z,1013.13
2019-01-05T09:11:47.848Z,1013.16
2019-01-05T09:13:47.882Z,1013.19
2019-01-05T09:14:47.899Z,1013.17
2019-01-05T09:15:47.914Z,1013.16
2019-01-05T09:16:47.932Z,1013.17
2019-01-05T09:17:47.949Z,1013.19
2019-01-05T09:18:47.965Z,1013.24
2019-01-05T09:19:48.378Z,1013.21
2019-01-05T09:20:47.999Z,1013.24
2019-01-05T09:21:48.016Z,1013.22
2019-01-05T09:22:48.032Z,1013.16
2019-01-05T09:23:48.049Z,1013.17
2019-01-05T09:24:48.066Z,1013.16
2019-01-05T09:25:48.083Z,1013.21
2019-01-05T09:26:48.100Z,1013.16
2019-01-05T09:27:48.119Z,1013.27
2019-01-05T09:29:48.151Z,1013.2
2019-01-05T09:30:48.170Z,1013.23
2019-01-05T09:31:48.185Z,1013.27
2019-01-05T09:32:48.202Z,1013.27
2019-01-05T09:33:48.221Z,1013.18
2019-01-05T09:34:48.236Z,1013.22
2019-01-05T09:35:48.256Z,1013.17
2019-01-05T09:36:48.271Z,1013.19
2019-01-05T09:37:48.287Z,1013.23
2019-01-05T09:38:48.304Z,1013.25
2019-01-05T09:39:48.321Z,1013.29
2019-01-05T09:40:48.341Z,1013.31
2019-01-05T09:41:48.355Z,1013.28
2019-01-05T09:42:48.372Z,1013.22
2019-01-05T09:43:48.389Z,1013.24
2019-01-05T09:45:48.423Z,1013.31
2019-01-05T09:46:48.440Z,1013.24
2019-01-05T09:47:48.459Z,1013.34
2019-01-05T09:48:48.474Z,1013.4
2019-01-05T09:49:48.491Z,1013.46
2019-01-05T09:50:48.510Z,1013.5
2019-01-05T09:51:48.526Z,1013.52
2019-01-05T09:52:48.545Z,1013.48
2019-01-05T09:53:48.561Z,1013.5
2019-01-05T09:54:48.578Z,1013.52
2019-01-05T09:55:48.595Z,1013.49
2019-01-05T09:56:48.616Z,1013.42
2019-01-05T09:57:48.630Z,1013.45
2019-01-05T09:58:48.647Z,1013.36
2019-01-05T09:59:48.664Z,1013.33
2019-01-05T10:01:48.699Z,1013.33
2019-01-05T10:02:48.716Z,1013.31
2019-01-05T10:03:48.734Z,1013.35
2019-01-05T10:04:48.751Z,1013.37
2019-01-05T10:05:48.768Z,1013.34
2019-01-05T10:06:48.784Z,1013.41
2019-01-05T10:07:48.802Z,1013.34
2019-01-05T10:08:48.819Z,1013.27
2019-01-05T10:09:48.840Z,1013.38
2019-01-05T10:10:48.853Z,1013.33
2019-01-05T10:11:48.870Z,1013.34
2019-01-05T10:12:48.888Z,1013.38
2019-01-05T10:13:48.906Z,1013.42
2019-01-05T10:14:48.923Z,1013.39
2019-01-05T10:16:48.957Z,1013.37
2019-01-05T10:17:48.974Z,1013.38
2019-01-05T10:18:48.991Z,1013.39
2019-01-05T10:19:49.009Z,1013.42
2019-01-05T10:20:49.027Z,1013.4
2019-01-05T10:21:49.044Z,1013.4
2019-01-05T10:22:49.061Z,1013.46
2019-01-05T10:23:49.079Z,1013.42
2019-01-05T10:24:49.095Z,1013.45
2019-01-05T10:25:49.115Z,1013.51
2019-01-05T10:26:49.131Z,1013.56
2019-01-05T10:27:49.149Z,1013.61
2019-01-05T10:28:49.165Z,1013.61
2019-01-05T10:29:49.183Z,1013.63
2019-01-05T10:30:49.201Z,1013.7
2019-01-05T10:31:49.219Z,1013.68
2019-01-05T10:32:49.236Z,1013.67
2019-01-05T10:33:49.254Z,1013.73
2019-01-05T10:34:49.271Z,1013.72
2019-01-05T10:35:49.288Z,1013.7
2019-01-05T10:36:49.306Z,1013.71
2019-01-05T10:37:49.323Z,1013.72
2019-01-05T10:38:49.341Z,1013.7
2019-01-05T10:39:49.360Z,1013.66
2019-01-05T10:40:49.376Z,1013.66
2019-01-05T10:41:49.394Z,1013.72
2019-01-05T10:42:49.412Z,1013.72
2019-01-05T10:43:49.428Z,1013.68
2019-01-05T10:44:49.446Z,1013.67
2019-01-05T10:45:49.464Z,1013.71
2019-01-05T10:46:49.480Z,1013.68
2019-01-05T10:48:49.515Z,1013.65
2019-01-05T10:49:49.534Z,1013.63
2019-01-05T10:50:49.550Z,1013.61
2019-01-05T10:51:49.571Z,1013.67
2019-01-05T10:52:49.585Z,1013.62
2019-01-05T10:53:49.603Z,1013.58
2019-01-05T10:54:49.619Z,1013.61
2019-01-05T10:55:49.637Z,1013.62
2019-01-05T10:56:49.655Z,1013.65
2019-01-05T10:57:49.672Z,1013.67
2019-01-05T10:58:49.689Z,1013.67
2019-01-05T10:59:49.707Z,1013.66
2019-01-05T11:00:49.724Z,1013.7
2019-01-05T11:01:49.741Z,1013.7
2019-01-05T11:02:49.759Z,1013.71
2019-01-05T11:04:49.794Z,1013.7
2019-01-05T11:05:49.811Z,1013.74
2019-01-05T11:06:49.834Z,1013.72
2019-01-05T11:07:49.846Z,1013.74
2019-01-05T11:08:49.862Z,1013.79
2019-01-05T11:09:49.880Z,1013.73
2019-01-05T11:10:49.898Z,1013.76
2019-01-05T11:11:49.916Z,1013.74
2019-01-05T11:12:49.932Z,1013.67
2019-01-05T11:13:49.951Z,1013.76
2019-01-05T11:14:49.967Z,1013.73
2019-01-05T11:15:49.985Z,1013.77
2019-01-05T11:16:50.001Z,1013.74
2019-01-05T11:17:50.019Z,1013.74
2019-01-05T11:18:50.036Z,1013.71
2019-01-05T11:20:50.071Z,1013.71
2019-01-05T11:21:50.089Z,1013.71
2019-01-05T11:22:50.107Z,1013.73
2019-01-05T11:23:50.123Z,1013.71
2019-01-05T11:24:50.141Z,1013.76
2019-01-05T11:25:50.158Z,1013.72
2019-01-05T11:26:50.176Z,1013.74
2019-01-05T11:27:50.193Z,1013.72
2019-01-05T11:28:50.210Z,1013.75
2019-01-05T11:29:50.228Z,1013.77
2019-01-05T11:30:50.245Z,1013.79
2019-01-05T11:31:50.309Z,1013.79
2019-01-05T11:32:50.293Z,1013.76
2019-01-05T11:33:50.302Z,1013.77
2019-01-05T11:34:50.314Z,1013.78
2019-01-05T11:36:50.350Z,1013.87
2019-01-05T11:37:50.374Z,1013.84
2019-01-05T11:38:50.384Z,1013.85
2019-01-05T11:39:50.402Z,1013.86
2019-01-05T11:40:50.421Z,1013.88
2019-01-05T11:41:50.437Z,1013.89
2019-01-05T11:42:50.455Z,1013.89
2019-01-05T11:43:50.472Z,1013.89
2019-01-05T11:44:50.495Z,1013.84
2019-01-05T11:45:50.507Z,1013.86
2019-01-05T11:46:50.524Z,1013.84
2019-01-05T11:47:50.543Z,1013.86
2019-01-05T11:48:50.563Z,1013.87
2019-01-05T11:49:50.578Z,1013.89
2019-01-05T11:51:50.614Z,1013.87
2019-01-05T11:52:50.630Z,1013.92
2019-01-05T11:53:50.649Z,1013.86
2019-01-05T11:54:50.676Z,1013.89
2019-01-05T11:55:50.683Z,1013.91
2019-01-05T11:56:50.703Z,1013.95
2019-01-05T11:57:50.718Z,1013.95
2019-01-05T11:58:50.736Z,1013.99
2019-01-05T11:59:50.758Z,1013.99
2019-01-05T12:00:50.777Z,1013.94
2019-01-05T12:01:50.797Z,1013.99
2019-01-05T12:02:50.807Z,1013.98
2019-01-05T12:03:50.823Z,1014.02
2019-01-05T12:04:50.841Z,1014.02
2019-01-05T12:05:50.860Z,1014
2019-01-05T12:06:50.896Z,1014.08
2019-01-05T12:07:50.893Z,1014.03
2019-01-05T12:08:50.911Z,1014.04
2019-01-05T12:09:50.929Z,1014.04
2019-01-05T12:10:50.945Z,1014.03
2019-01-05T12:11:50.963Z,1014.05
2019-01-05T12:12:50.987Z,1014.05
2019-01-05T12:13:50.999Z,1014.1
2019-01-05T12:14:51.019Z,1014.12
2019-01-05T12:15:51.034Z,1014.13
2019-01-05T12:16:51.051Z,1014.15
2019-01-05T12:17:51.069Z,1014.19
2019-01-05T12:18:51.086Z,1014.17
2019-01-05T12:19:51.105Z,1014.17
2019-01-05T12:20:51.122Z,1014.18
2019-01-05T12:21:51.138Z,1014.17
2019-01-05T12:23:51.173Z,1014.21
2019-01-05T12:24:51.190Z,1014.18
2019-01-05T12:25:51.206Z,1014.19
2019-01-05T12:26:51.225Z,1014.19
2019-01-05T12:27:51.244Z,1014.27
2019-01-05T12:28:51.259Z,1014.25
2019-01-05T12:29:51.276Z,1014.29
2019-01-05T12:30:51.294Z,1014.32
2019-01-05T12:31:51.312Z,1014.34
2019-01-05T12:32:51.328Z,1014.31
2019-01-05T12:33:51.346Z,1014.35
2019-01-05T12:34:51.364Z,1014.26
2019-01-05T12:35:51.382Z,1014.33
2019-01-05T12:36:51.398Z,1014.29
2019-01-05T12:37:51.415Z,1014.31
2019-01-05T12:39:51.450Z,1014.28
2019-01-05T12:40:51.467Z,1014.32
2019-01-05T12:41:51.486Z,1014.28
2019-01-05T12:42:51.502Z,1014.27
2019-01-05T12:43:51.519Z,1014.24
2019-01-05T12:44:51.536Z,1014.27
2019-01-05T12:45:51.553Z,1014.28
2019-01-05T12:46:51.571Z,1014.29
2019-01-05T12:47:51.587Z,1014.29
2019-01-05T12:48:51.604Z,1014.29